Latest Coastal Weather Observations for Frankston (Ballam Park)

IDV60701

Issued at 11:32 pm EST Saturday 25 June 2022 (issued every 10 minutes, with the page automatically refreshed every 10 minutes)

About coastal observations | Map of coastal stations | Coastal observations for VIC | Marine services | Other Formats
Station Details ID: 086388 Name: FRANKSTON (BALLAM PARK) Lat: -38.15 Lon: 145.16 Height: 58.47 m
Data from the previous 72 hours. | See also: Recent months at Frankston (Ballam Park)
Date/Time
EST
Wind Sea
Height
m
Swell Vis
km
Cloud Weather Temp
°C
Press
MSL
hPa
Rain since
9am
mm
Dir  Spd
kts
Gust
kts
Height
m
Period
s
Dir
25/11:30pm NNW 9 18 - - - - - - - 12.2 1019.9 0.2
25/11:00pm NNW 9 16 - - - - - - - 12.6 1019.9 0.2
25/10:30pm NNW 9 14 - - - - - - - 12.4 1019.6 0.2
25/10:00pm NNW 9 16 - - - - - - - 12.4 1019.3 0.2
25/09:30pm NNW 9 14 - - - - - - - 12.3 1019.3 0.2
25/09:00pm NNW 9 14 - - - - - - - 12.5 1019.3 0.2
25/08:30pm NNW 10 16 - - - - - - - 12.8 1019.3 0.2
25/08:00pm NNW 10 17 - - - - - - - 13.1 1019.2 0.2
25/07:30pm NNW 11 18 - - - - - - - 13.2 1019.0 0.2
25/07:00pm NNW 8 17 - - - - - - - 13.1 1018.7 0.2
25/06:30pm NNW 7 13 - - - - - - - 13.2 1018.5 0.2
25/06:00pm NNW 9 14 - - - - - - - 13.3 1018.3 0.2
25/05:30pm NNW 7 14 - - - - - - - 13.8 1018.3 0.2
25/05:00pm NNW 7 11 - - - - - - - 13.9 1018.2 0.2
25/04:30pm NNW 7 12 - - - - - - - 14.0 1018.1 0.2
25/04:00pm NNW 7 12 - - - - - - - 14.0 1018.2 0.2
25/03:30pm NW 8 16 - - - - - - - 14.0 1018.2 0.2
25/03:00pm NW 9 14 - - - - - - - 14.3 1018.2 0.2
25/02:30pm NNW 9 17 - - - - - - - 14.2 1018.0 0.2
25/02:00pm NW 9 15 - - - - - - - 14.8 1018.1 0.2
25/01:30pm NNW 8 15 - - - - - - - 14.0 1018.5 0.2
25/01:00pm NNW 9 16 - - - - - - - 14.5 1018.5 0.0
25/12:30pm NW 10 17 - - - - - - - 14.6 1018.7 0.0
25/12:00pm NNW 8 12 - - - - - - - 14.1 1018.8 0.0
25/11:30am NNW 10 16 - - - - - - - 13.9 1018.9 0.0
25/11:00am NNW 10 15 - - - - - - - 13.7 1019.2 0.0
25/10:30am NNW 9 17 - - - - - - - 13.0 1019.3 0.0
25/10:00am NNW 9 16 - - - - - - - 12.4 1019.2 0.0
25/09:30am NNW 6 10 - - - - - - - 11.2 1018.9 0.0
25/09:00am NNW 5 9 - - - - - - - 10.7 1018.8 0.0
25/08:30am NNW 5 8 - - - - - - - 10.0 1018.4 0.0
25/08:00am NNW 4 6 - - - - - - - 9.8 1018.4 0.0
25/07:30am NNW 5 8 - - - - - - - 9.6 1018.2 0.0
25/07:00am NNW 7 11 - - - - - - - 10.1 1017.9 0.0
25/06:30am NNW 6 10 - - - - - - - 10.6 1017.5 0.0
25/06:00am NNW 6 11 - - - - - - - 10.3 1017.1 0.0
25/05:30am NNW 4 6 - - - - - - - 10.1 1016.9 0.0
25/05:00am NNW 4 7 - - - - - - - 10.2 1016.6 0.0
25/04:30am NNW 5 7 - - - - - - - 10.1 1016.5 0.0
25/04:00am NNW 6 11 - - - - - - - 10.6 1016.4 0.0
25/03:30am NNW 4 8 - - - - - - - 10.4 1016.5 0.0
25/03:00am NNW 6 10 - - - - - - - 10.9 1016.5 0.0
25/02:30am N 2 5 - - - - - - - 9.8 1016.6 0.0
25/02:00am NNW 2 3 - - - - - - - 10.5 1016.7 0.0
25/01:30am NNW 4 7 - - - - - - - 10.7 1016.5 0.0
25/01:00am NNW 4 7 - - - - - - - 11.3 1016.6 0.0
25/12:30am NNW 4 7 - - - - - - - 11.4 1016.7 0.0
25/12:00am NW 4 7 - - - - - - - 11.4 1016.8 0.0
 
Date/Time
EST
Wind Sea
Height
m
Swell Vis
km
Cloud Weather Temp
°C
Press
MSL
hPa
Rain since
9am
mm
Dir  Spd
kts
Gust
kts
Height
m
Period
s
Dir
24/11:30pm NNW 4 7 - - - - - - - 11.1 1016.9 0.0
24/11:00pm NW 5 9 - - - - - - - 11.4 1016.9 0.0
24/10:30pm NW 4 7 - - - - - - - 11.4 1016.9 0.0
24/10:00pm NW 4 7 - - - - - - - 11.1 1017.0 0.0
24/09:30pm NW 4 7 - - - - - - - 11.1 1017.0 0.0
24/09:00pm WNW 3 6 - - - - - - - 11.2 1016.9 0.0
24/08:30pm WNW 4 7 - - - - - - - 11.8 1016.8 0.0
24/08:00pm WNW 5 9 - - - - - - - 11.5 1016.8 0.0
24/07:30pm WNW 4 8 - - - - - - - 11.5 1016.8 0.0
24/07:00pm WNW 3 5 - - - - - - - 11.6 1016.4 0.0
24/06:30pm W 3 5 - - - - - - - 12.1 1016.0 0.0
24/06:00pm WNW 2 4 - - - - - - - 11.4 1015.7 0.0
24/05:30pm WNW 2 7 - - - - - - - 11.6 1015.5 0.0
24/05:00pm WNW 2 5 - - - - - - - 12.2 1015.1 0.0
24/04:30pm W 4 6 - - - - - - - 12.6 1014.9 0.0
24/04:00pm WNW 6 9 - - - - - - - 13.6 1014.9 0.0
24/03:30pm WNW 5 9 - - - - - - - 14.2 1014.7 0.0
24/03:00pm WNW 7 13 - - - - - - - 13.1 1014.7 0.0
24/02:30pm WNW 6 13 - - - - - - - 14.6 1014.3 0.0
24/02:00pm WNW 7 12 - - - - - - - 14.3 1014.3 0.0
24/01:30pm WNW 6 13 - - - - - - - 14.2 1014.5 0.0
24/01:00pm WNW 6 12 - - - - - - - 13.2 1014.6 0.0
24/12:30pm NW 8 14 - - - - - - - 14.3 1014.5 0.0
24/12:00pm NW 7 11 - - - - - - - 13.6 1014.7 0.0
24/11:30am NW 7 11 - - - - - - - 13.4 1014.9 0.0
24/11:00am NW 7 13 - - - - - - - 13.1 1014.8 0.0
24/10:30am NW 8 14 - - - - - - - 12.4 1014.8 0.0
24/10:00am NW 7 11 - - - - - - - 12.4 1014.6 0.0
24/09:30am NW 7 14 - - - - - - - 12.4 1014.1 0.0
24/09:00am NW 7 13 - - - - - - - 12.4 1013.8 -
24/08:30am NW 5 10 - - - - - - - 12.0 1013.5 -
24/08:00am NW 4 7 - - - - - - - 11.4 1013.3 -
24/07:30am NNW 6 10 - - - - - - - 11.6 1012.9 -
24/07:00am NNW 5 11 - - - - - - - 11.3 1012.4 -
24/06:30am NNW 6 13 - - - - - - - 11.3 1012.2 -
24/06:00am NNW 7 13 - - - - - - Recent precip. 11.4 1011.8 -
24/05:30am N 5 9 - - - - - - - 11.5 1011.4 -
24/05:00am NNW 7 11 - - - - - - - 11.7 1011.3 -
24/04:30am NNW 7 13 - - - - - - - 12.3 1011.2 -
24/04:00am NNW 9 16 - - - - - - - 12.9 1011.2 -
24/03:30am NNW 9 18 - - - - - - - 13.5 1011.2 -
24/03:00am NNW 11 20 - - - - - - - 14.3 1011.3 0.0
24/02:30am NNW 12 21 - - - - - - - 14.4 1011.8 -
24/02:00am NNW 12 23 - - - - - - - 14.9 1011.8 -
24/01:30am NNW 13 25 - - - - - - - 14.7 1011.6 -
24/01:13am NNW 15 26 - - - - - - - 14.9 1011.5 -
24/01:00am NNW 14 24 - - - - - - - 14.9 1011.6 -
24/12:30am NNW 17 29 - - - - - - - 15.0 1011.9 -
24/12:00am NNW 15 27 - - - - - - - 14.7 1012.3 -
 
Date/Time
EST
Wind Sea
Height
m
Swell Vis
km
Cloud Weather Temp
°C
Press
MSL
hPa
Rain since
9am
mm
Dir  Spd
kts
Gust
kts
Height
m
Period
s
Dir
23/11:56pm NNW 15 27 - - - - - - - 14.9 1012.2 -
23/11:30pm N 12 23 - - - - - - - 14.8 1012.5 -
23/11:00pm N 13 23 - - - - - - - 14.3 1013.0 -
23/10:30pm N 11 22 - - - - - - - 14.1 1013.0 -
23/10:00pm NNW 13 19 - - - - - - - 14.2 1013.5 -
23/09:30pm NNW 12 19 - - - - - - - 14.3 1014.1 -
23/09:00pm NNW 12 20 - - - - - - - 14.4 1014.1 0.0
23/08:30pm NNW 13 22 - - - - - - - 14.5 1014.3 -
23/08:00pm NNW 12 20 - - - - - - - 14.5 1014.7 -
23/07:30pm NNW 11 18 - - - - - - - 14.6 1014.8 -
23/07:00pm NNW 11 20 - - - - - - - 14.5 1015.0 -
23/06:30pm NNW 9 14 - - - - - - - 14.3 1015.6 -
23/06:00pm NNW 9 19 - - - - - - - 14.0 1015.7 -
23/05:30pm NNW 9 17 - - - - - - - 13.9 1015.6 -
23/05:00pm NNW 10 18 - - - - - - - 14.2 1015.8 -
23/04:30pm NNW 10 18 - - - - - - - 14.4 1015.6 -
23/04:00pm NNW 9 13 - - - - - - - 14.6 1016.1 -
23/03:30pm NNW 11 19 - - - - - - - 15.0 1016.1 -
23/03:00pm NNW 9 16 - - - - - - - 15.0 1016.1 -
23/02:30pm NNW 9 16 - - - - - - - 15.4 1016.3 -
23/02:00pm N 10 15 - - - - - - - 15.3 1016.7 -
23/01:30pm NNW 10 19 - - - - - - - 15.2 1017.3 -
23/01:00pm NNW 9 17 - - - - - - - 15.7 1018.0 -
23/11:00am NNW 5 9 - - - - - - - 14.4 1020.7 -
23/10:00am NNW 7 11 - - - - - - - 13.5 1021.1 0.0
23/09:30am NNW 9 15 - - - - - - - 13.3 1020.9 0.0
23/09:00am NNW 7 14 - - - - - - - 12.9 1020.9 0.2
23/08:30am NNW 7 11 - - - - - - - 12.4 1020.8 0.2
23/08:00am NNW 6 11 - - - - - - - 11.9 1020.6 0.2
23/07:30am NNW 7 12 - - - - - - - 12.1 1020.8 0.2
23/07:00am NNW 7 11 - - - - - - - 12.0 1020.8 0.2
23/06:30am NNW 7 12 - - - - - - - 11.6 1020.6 0.2
23/06:00am N 6 10 - - - - - - - 11.4 1020.4 0.2
23/05:30am N 5 9 - - - - - - - 11.6 1020.4 0.2
23/05:00am N 4 7 - - - - - - - 11.4 1020.5 0.2
23/04:30am N 4 7 - - - - - - - 11.6 1020.6 0.2
23/04:00am N 3 5 - - - - - - - 11.8 1021.2 0.2
23/03:30am N 2 4 - - - - - - - 11.5 1021.4 0.2
23/03:00am N 4 9 - - - - - - - 11.7 1021.7 0.2
23/02:30am NNW 5 9 - - - - - - - 11.8 1021.9 0.2
23/02:00am NNW 5 8 - - - - - - - 11.6 1022.2 0.2
23/01:30am N 5 8 - - - - - - - 11.3 1022.1 0.2
23/01:00am N 4 7 - - - - - - - 10.9 1022.4 0.2
23/12:30am N 4 8 - - - - - - - 10.9 1022.5 0.2
23/12:00am N 5 10 - - - - - - Recent precip. 11.3 1022.7 0.2

Other formats

Comma delimited format used in spreadsheet applications
http://www.bom.gov.au/fwo/IDV60701/IDV60701.94876.axf

JavaScript Object Notation format (JSON) in row-major order
http://www.bom.gov.au/fwo/IDV60701/IDV60701.94876.json

Data quality

Most of these data are generated automatically and are frequently updated. Quality checks on data are not normally performed. It is possible for incorrect values to appear. Refer to information at About Latest Weather Observations and please check the disclaimer before using these data.